createdAt,value
2023-05-20T00:02:31.544Z,93963.53
2023-05-20T00:07:38.589Z,93964.83
2023-05-20T00:12:45.662Z,93973.91
2023-05-20T00:17:53.121Z,93946.24
2023-05-20T00:23:00.421Z,93951.31
2023-05-20T00:28:08.396Z,93946.00
2023-05-20T00:33:15.378Z,93945.73
2023-05-20T00:38:22.378Z,93948.09
2023-05-20T00:43:30.219Z,93938.23
2023-05-20T00:48:44.117Z,93946.27
2023-05-20T00:53:51.976Z,93935.09
2023-05-20T00:58:59.784Z,93931.11
2023-05-20T01:04:07.112Z,93930.58
2023-05-20T01:09:14.740Z,93934.84
2023-05-20T01:14:23.799Z,93926.29
2023-05-20T01:19:50.707Z,93942.55
2023-05-20T01:24:58.646Z,93930.59
2023-05-20T01:30:06.932Z,93923.15
2023-05-20T01:35:15.003Z,93909.32
2023-05-20T01:40:23.318Z,93901.85
2023-05-20T01:45:30.466Z,93891.78
2023-05-20T01:50:37.476Z,93898.95
2023-05-20T01:55:44.506Z,93908.48
2023-05-20T02:00:52.336Z,93911.14
2023-05-20T02:05:59.416Z,93914.38
2023-05-20T02:11:06.580Z,93911.41
2023-05-20T02:16:13.633Z,93916.23
2023-05-20T02:21:20.588Z,93911.40
2023-05-20T02:26:27.370Z,93903.43
2023-05-20T02:31:34.489Z,93898.66
2023-05-20T02:36:41.883Z,93905.33
2023-05-20T02:41:48.919Z,93911.17
2023-05-20T02:46:56.129Z,93905.02
2023-05-20T02:52:03.009Z,93899.98
2023-05-20T02:57:09.952Z,93895.45
2023-05-20T03:02:16.854Z,93922.06
2023-05-20T03:07:24.045Z,93903.22
2023-05-20T03:12:31.349Z,93913.59
2023-05-20T03:17:38.295Z,93899.98
2023-05-20T03:22:45.650Z,93885.92
2023-05-20T03:27:52.649Z,93900.30
2023-05-20T03:32:59.699Z,93906.40
2023-05-20T03:38:06.727Z,93913.01
2023-05-20T03:43:13.605Z,93916.98
2023-05-20T03:48:23.028Z,93915.13
2023-05-20T03:53:30.285Z,93905.04
2023-05-20T03:58:39.266Z,93908.20
2023-05-20T04:03:46.331Z,93904.73
2023-05-20T04:08:53.439Z,93900.70
2023-05-20T04:14:00.783Z,93907.16
2023-05-20T04:19:08.276Z,93905.78
2023-05-20T04:24:15.687Z,93906.52
2023-05-20T04:29:23.606Z,93904.07
2023-05-20T04:34:34.894Z,93913.16
2023-05-20T04:39:43.441Z,93908.28
2023-05-20T04:44:50.909Z,93916.30
2023-05-20T04:50:01.524Z,93923.75
2023-05-20T04:55:10.953Z,93923.98
2023-05-20T05:00:18.258Z,93758.05
2023-05-20T05:05:25.519Z,93916.88
2023-05-20T05:10:32.727Z,93921.13
2023-05-20T05:15:39.609Z,93920.29
2023-05-20T05:20:46.910Z,93920.09
2023-05-20T05:25:57.565Z,93918.70
2023-05-20T05:31:04.628Z,93912.08
2023-05-20T05:36:11.644Z,93926.06
2023-05-20T05:41:18.501Z,93929.78
2023-05-20T05:46:25.584Z,93932.19
2023-05-20T05:51:33.136Z,93932.16
2023-05-20T05:56:40.493Z,93930.09
2023-05-20T06:01:47.786Z,93926.27
2023-05-20T06:06:55.328Z,93944.31
2023-05-20T06:12:03.005Z,93938.73
2023-05-20T06:17:09.842Z,93778.42
2023-05-20T06:22:26.390Z,93936.47
2023-05-20T06:27:36.280Z,93937.17
2023-05-20T06:32:49.569Z,93938.14
2023-05-20T06:38:02.087Z,93945.37
2023-05-20T06:43:12.294Z,93943.98
2023-05-20T06:48:27.201Z,93937.34
2023-05-20T06:53:35.076Z,93936.02
2023-05-20T06:58:41.882Z,93922.98
2023-05-20T07:03:48.836Z,93923.97
2023-05-20T07:08:56.271Z,93915.20
2023-05-20T07:14:03.700Z,93917.80
2023-05-20T07:19:11.243Z,93922.95
2023-05-20T07:24:21.172Z,93918.69
2023-05-20T07:29:28.267Z,93908.56
2023-05-20T07:34:35.093Z,93899.91
2023-05-20T07:39:42.069Z,93904.70
2023-05-20T07:44:48.868Z,93894.05
2023-05-20T07:49:55.782Z,93890.81
2023-05-20T07:55:04.993Z,93892.76
2023-05-20T08:00:13.674Z,93888.81
2023-05-20T08:05:20.444Z,93885.90
2023-05-20T08:10:27.234Z,93892.16
2023-05-20T08:15:34.282Z,93895.30
2023-05-20T08:20:42.956Z,93882.13
2023-05-20T08:25:49.843Z,93878.63
2023-05-20T08:30:58.366Z,93881.04
2023-05-20T08:36:05.505Z,93878.88
2023-05-20T08:41:12.647Z,93875.70
2023-05-20T08:46:21.988Z,93675.37
2023-05-20T08:51:31.528Z,93864.47
2023-05-20T08:56:39.618Z,93848.55
2023-05-20T09:01:46.711Z,93855.13
2023-05-20T09:07:02.448Z,93855.63
2023-05-20T09:12:09.856Z,93848.80
2023-05-20T09:17:18.108Z,93849.97
2023-05-20T09:22:27.541Z,93845.89
2023-05-20T09:27:34.495Z,93845.55
2023-05-20T09:32:41.454Z,93841.91
2023-05-20T09:37:50.097Z,93839.94
2023-05-20T09:43:04.923Z,93839.17
2023-05-20T09:48:13.500Z,93834.52
2023-05-20T09:53:22.890Z,93831.46
2023-05-20T09:58:31.468Z,93829.89
2023-05-20T10:03:38.892Z,93829.22
2023-05-20T10:08:59.883Z,93827.32
2023-05-20T10:14:25.908Z,93819.47
2023-05-20T10:19:37.224Z,93826.32
2023-05-20T10:24:46.516Z,93819.81
2023-05-20T10:29:58.687Z,93820.41
2023-05-20T10:35:11.618Z,93819.06
2023-05-20T10:40:21.397Z,93811.47
2023-05-20T10:45:33.269Z,93813.28
2023-05-20T10:50:41.929Z,93823.03
2023-05-20T10:55:55.160Z,93811.42
2023-05-20T11:01:04.237Z,93815.11
2023-05-20T11:06:18.225Z,93819.37
2023-05-20T11:11:25.867Z,93820.39
2023-05-20T11:16:32.893Z,93818.34
2023-05-20T11:21:46.576Z,93804.69
2023-05-20T11:26:53.927Z,93787.64
2023-05-20T11:32:02.817Z,93789.81
2023-05-20T11:37:11.255Z,93786.34
2023-05-20T11:42:18.857Z,93778.08
2023-05-20T11:47:29.019Z,93778.11
2023-05-20T11:52:36.818Z,93736.75
2023-05-20T11:57:44.019Z,93779.47
2023-05-20T12:02:51.071Z,93764.66
2023-05-20T12:07:58.707Z,93774.02
2023-05-20T12:13:07.460Z,93767.36
2023-05-20T12:18:14.710Z,93766.48
2023-05-20T12:23:22.197Z,93766.29
2023-05-20T12:28:29.218Z,93769.89
2023-05-20T12:33:36.208Z,93761.38
2023-05-20T12:38:43.290Z,93770.87
2023-05-20T12:43:50.081Z,93768.17
2023-05-20T12:48:57.810Z,93764.52
2023-05-20T12:54:04.905Z,93764.52
2023-05-20T12:59:11.997Z,93756.09
2023-05-20T13:04:18.887Z,93755.17
2023-05-20T13:09:25.809Z,93739.73
2023-05-20T13:14:32.798Z,93732.12
2023-05-20T13:19:40.102Z,93749.33
2023-05-20T13:24:46.883Z,93734.89
2023-05-20T13:29:53.851Z,93725.24
2023-05-20T13:35:00.797Z,93726.42
2023-05-20T13:40:09.558Z,93730.05
2023-05-20T13:45:16.391Z,93720.08
2023-05-20T13:50:23.393Z,93716.71
2023-05-20T13:55:30.523Z,93709.75
2023-05-20T14:00:39.647Z,93710.90
2023-05-20T14:05:46.712Z,93710.97
2023-05-20T14:10:56.427Z,93703.67
2023-05-20T14:16:03.570Z,93710.30
2023-05-20T14:21:10.685Z,93715.48
2023-05-20T14:26:17.850Z,93714.00
2023-05-20T14:31:24.799Z,93708.95
2023-05-20T14:36:32.449Z,93703.13
2023-05-20T14:41:39.855Z,93706.67
2023-05-20T14:46:47.206Z,93701.63
2023-05-20T14:51:54.292Z,93694.67
2023-05-20T14:57:01.545Z,93699.02
2023-05-20T15:02:10.104Z,93692.80
2023-05-20T15:07:18.554Z,93684.84
2023-05-20T15:12:26.241Z,93677.05
2023-05-20T15:17:33.591Z,93673.39
2023-05-20T15:22:42.029Z,93666.16
2023-05-20T15:27:49.530Z,93670.10
2023-05-20T15:32:56.532Z,93680.72
2023-05-20T15:38:03.558Z,93670.01
2023-05-20T15:43:10.670Z,93663.55
2023-05-20T15:48:18.320Z,93652.91
2023-05-20T15:53:25.418Z,93647.14
2023-05-20T15:58:32.747Z,93643.83
2023-05-20T16:03:40.045Z,93651.52
2023-05-20T16:08:47.335Z,93656.03
2023-05-20T16:13:54.368Z,93655.92
2023-05-20T16:19:01.479Z,93651.48
2023-05-20T16:24:08.505Z,93656.94
2023-05-20T16:29:16.616Z,93653.29
2023-05-20T16:34:24.099Z,93655.34
2023-05-20T16:39:31.572Z,93650.30
2023-05-20T16:44:39.538Z,93657.55
2023-05-20T16:49:46.760Z,93649.75
2023-05-20T16:54:53.880Z,93650.77
2023-05-20T17:00:00.795Z,93658.55
2023-05-20T17:05:09.777Z,93643.58
2023-05-20T17:10:16.812Z,93358.28
2023-05-20T17:15:23.964Z,93691.16
2023-05-20T17:20:30.943Z,93691.58
2023-05-20T17:25:37.803Z,93751.80
2023-05-20T17:30:44.684Z,93753.81
2023-05-20T17:35:52.123Z,93740.36
2023-05-20T17:40:59.123Z,93725.80
2023-05-20T17:46:06.312Z,93720.75
2023-05-20T17:51:13.494Z,93726.74
2023-05-20T17:56:20.603Z,93728.10
2023-05-20T18:01:27.710Z,93731.89
2023-05-20T18:06:35.562Z,93747.72
2023-05-20T18:11:42.527Z,93718.25
2023-05-20T18:16:50.036Z,93724.96
2023-05-20T18:21:57.063Z,93717.36
2023-05-20T18:27:05.608Z,93727.90
2023-05-20T18:32:13.062Z,93739.89
2023-05-20T18:37:20.670Z,93730.52
2023-05-20T18:42:28.197Z,93736.31
2023-05-20T18:47:35.315Z,93735.12
2023-05-20T18:52:42.794Z,93730.32
2023-05-20T18:57:49.626Z,93735.62
2023-05-20T19:02:58.872Z,93731.03
2023-05-20T19:08:06.412Z,93748.52
2023-05-20T19:13:13.466Z,93758.02
2023-05-20T19:18:21.909Z,93760.32
2023-05-20T19:23:29.756Z,93757.55
2023-05-20T19:28:37.085Z,93751.69
2023-05-20T19:33:43.937Z,93750.39
2023-05-20T19:38:50.875Z,93757.19
2023-05-20T19:43:57.921Z,93787.11
2023-05-20T19:49:05.821Z,93802.34
2023-05-20T19:54:12.741Z,93801.23
2023-05-20T19:59:19.968Z,93790.52
2023-05-20T20:04:27.359Z,93779.41
2023-05-20T20:09:34.279Z,93803.03
2023-05-20T20:14:41.792Z,93814.48
2023-05-20T20:19:48.763Z,93821.63
2023-05-20T20:24:55.803Z,93805.95
2023-05-20T20:30:05.827Z,93816.83
2023-05-20T20:35:12.726Z,93811.64
2023-05-20T20:40:20.054Z,93818.93
2023-05-20T20:45:27.154Z,93798.53
2023-05-20T20:50:37.443Z,93797.78
2023-05-20T20:55:46.355Z,93784.30
2023-05-20T21:00:53.480Z,93786.66
2023-05-20T21:06:00.744Z,93774.89
2023-05-20T21:11:07.649Z,93776.98
2023-05-20T21:16:14.864Z,93768.02
2023-05-20T21:21:22.121Z,93768.17
2023-05-20T21:26:29.462Z,93770.19
2023-05-20T21:31:36.832Z,93770.39
2023-05-20T21:36:43.860Z,93757.48
2023-05-20T21:41:51.012Z,93756.34
2023-05-20T21:46:57.878Z,93747.33
2023-05-20T21:52:05.229Z,93736.09
2023-05-20T21:57:12.609Z,93749.14
2023-05-20T22:02:19.551Z,93746.56
2023-05-20T22:07:26.700Z,93740.88
2023-05-20T22:12:35.857Z,93732.77
2023-05-20T22:17:44.932Z,93730.11
2023-05-20T22:22:52.173Z,93725.98
2023-05-20T22:27:59.148Z,93724.34
2023-05-20T22:33:06.869Z,93721.02
2023-05-20T22:38:14.089Z,93718.67
2023-05-20T22:43:22.770Z,93714.11
2023-05-20T22:48:30.373Z,93715.02
2023-05-20T22:53:37.700Z,93700.02
2023-05-20T22:58:46.210Z,93702.81
2023-05-20T23:03:54.219Z,93699.13
2023-05-20T23:09:01.227Z,93694.69
2023-05-20T23:14:08.860Z,93688.59
2023-05-20T23:19:17.450Z,93701.20
2023-05-20T23:24:24.442Z,93683.51
2023-05-20T23:29:32.181Z,93672.63
2023-05-20T23:34:39.318Z,93670.34
2023-05-20T23:39:46.340Z,93665.86
2023-05-20T23:44:53.503Z,93669.97
2023-05-20T23:50:01.737Z,93656.55
2023-05-20T23:55:09.629Z,93651.60
